createdAt,value
2018-01-22T00:01:42.509Z,3.50
2018-01-22T00:04:44.160Z,3.40
2018-01-22T00:07:45.933Z,3.60
2018-01-22T00:10:48.113Z,3.60
2018-01-22T00:13:50.324Z,3.50
2018-01-22T00:16:51.776Z,2.90
2018-01-22T00:19:53.202Z,3.00
2018-01-22T00:22:54.885Z,3.50
2018-01-22T00:25:56.364Z,3.30
2018-01-22T00:28:57.859Z,3.00
2018-01-22T00:32:00.309Z,3.60
2018-01-22T00:35:02.572Z,3.50
2018-01-22T00:38:04.048Z,3.50
2018-01-22T00:41:05.565Z,3.20
2018-01-22T00:44:07.196Z,2.90
2018-01-22T00:47:08.669Z,3.40
2018-01-22T00:50:10.154Z,3.40
2018-01-22T00:53:12.390Z,3.30
2018-01-22T00:56:13.876Z,3.20
2018-01-22T00:59:15.516Z,3.40
2018-01-22T01:02:17.004Z,3.50
2018-01-22T01:05:19.205Z,3.30
2018-01-22T01:08:20.708Z,3.50
2018-01-22T01:11:22.145Z,2.80
2018-01-22T01:14:23.627Z,3.10
2018-01-22T01:17:25.826Z,3.20
2018-01-22T01:20:27.297Z,2.90
2018-01-22T01:23:28.947Z,2.80
2018-01-22T01:26:30.611Z,3.20
2018-01-22T01:29:32.059Z,3.10
2018-01-22T01:32:33.607Z,3.10
2018-01-22T01:35:35.121Z,3.00
2018-01-22T01:38:37.322Z,3.20
2018-01-22T01:41:38.802Z,3.10
2018-01-22T01:44:40.272Z,3.10
2018-01-22T01:47:41.760Z,3.30
2018-01-22T01:50:43.988Z,3.10
2018-01-22T01:53:45.463Z,3.10
2018-01-22T01:56:46.964Z,3.30
2018-01-22T01:59:48.424Z,3.20
2018-01-22T02:02:50.075Z,3.10
2018-01-22T02:05:51.669Z,3.10
2018-01-22T02:08:53.281Z,3.40
2018-01-22T02:11:54.736Z,3.10
2018-01-22T02:14:56.201Z,2.80
2018-01-22T02:17:57.656Z,2.90
2018-01-22T02:20:59.223Z,3.00
2018-01-22T02:27:09.640Z,3.10
2018-01-22T02:30:12.016Z,3.10
2018-01-22T02:33:13.465Z,3.20
2018-01-22T02:36:15.689Z,3.10
2018-01-22T02:39:17.268Z,3.10
2018-01-22T02:42:18.706Z,2.90
2018-01-22T02:45:25.744Z,3.10
2018-01-22T02:48:29.623Z,3.10
2018-01-22T02:51:31.749Z,3.00
2018-01-22T02:54:43.547Z,3.00
2018-01-22T02:57:44.992Z,3.00
2018-01-22T03:00:46.462Z,3.10
2018-01-22T03:03:47.849Z,3.00
2018-01-22T03:06:49.331Z,3.00
2018-01-22T03:09:50.776Z,3.10
2018-01-22T03:12:53.211Z,3.10
2018-01-22T03:15:54.864Z,3.30
2018-01-22T03:18:57.082Z,3.10
2018-01-22T03:21:58.669Z,3.10
2018-01-22T03:25:00.110Z,3.20
2018-01-22T03:28:01.533Z,3.00
2018-01-22T03:31:03.687Z,3.20
2018-01-22T03:34:05.161Z,3.10
2018-01-22T03:40:15.716Z,3.00
2018-01-22T03:43:17.216Z,3.20
2018-01-22T03:46:18.673Z,3.20
2018-01-22T03:49:20.157Z,3.20
2018-01-22T03:52:21.840Z,3.20
2018-01-22T03:55:23.412Z,2.80
2018-01-22T03:58:25.730Z,3.20
2018-01-22T04:01:27.408Z,3.20
2018-01-22T04:04:28.877Z,3.30
2018-01-22T04:07:30.329Z,2.80
2018-01-22T04:10:31.840Z,2.90
2018-01-22T04:13:33.338Z,2.90
2018-01-22T04:16:34.812Z,3.10
2018-01-22T04:19:37.036Z,3.20
2018-01-22T04:22:38.528Z,3.20
2018-01-22T04:25:40.961Z,3.30
2018-01-22T04:28:42.423Z,3.20
2018-01-22T04:31:43.842Z,2.70
2018-01-22T04:34:45.302Z,3.20
2018-01-22T04:37:46.793Z,3.00
2018-01-22T04:40:48.241Z,2.80
2018-01-22T04:43:49.816Z,3.30
2018-01-22T04:46:51.205Z,3.20
2018-01-22T04:49:52.688Z,3.10
2018-01-22T04:52:54.172Z,2.90
2018-01-22T04:55:56.629Z,3.30
2018-01-22T04:58:58.117Z,2.60
2018-01-22T05:02:00.323Z,3.40
2018-01-22T05:05:01.841Z,3.30
2018-01-22T05:08:03.269Z,3.60
2018-01-22T05:11:04.753Z,2.90
2018-01-22T05:14:07.010Z,3.40
2018-01-22T05:17:09.172Z,3.40
2018-01-22T05:20:10.819Z,3.40
2018-01-22T05:23:12.248Z,3.40
2018-01-22T05:26:13.704Z,3.10
2018-01-22T05:29:15.396Z,3.50
2018-01-22T05:32:16.975Z,3.60
2018-01-22T05:35:18.432Z,3.60
2018-01-22T05:38:19.905Z,3.40
2018-01-22T05:41:21.345Z,3.10
2018-01-22T05:44:22.878Z,3.50
2018-01-22T05:47:25.108Z,3.40
2018-01-22T05:50:26.540Z,3.20
2018-01-22T05:53:28.029Z,3.00
2018-01-22T05:56:29.504Z,3.40
2018-01-22T05:59:31.739Z,3.40
2018-01-22T06:02:33.249Z,3.40
2018-01-22T06:05:34.707Z,3.40
2018-01-22T06:08:36.158Z,3.40
2018-01-22T06:11:37.614Z,3.30
2018-01-22T06:14:39.067Z,3.50
2018-01-22T06:17:40.500Z,3.40
2018-01-22T06:20:42.017Z,3.50
2018-01-22T06:23:43.414Z,3.30
2018-01-22T06:26:44.951Z,3.50
2018-01-22T06:29:47.292Z,3.60
2018-01-22T06:32:48.725Z,3.60
2018-01-22T06:35:50.214Z,3.70
2018-01-22T06:38:52.423Z,3.80
2018-01-22T06:41:53.881Z,3.70
2018-01-22T06:44:55.261Z,3.90
2018-01-22T06:47:56.670Z,3.70
2018-01-22T06:50:58.735Z,3.80
2018-01-22T06:54:00.106Z,3.80
2018-01-22T06:57:01.486Z,3.90
2018-01-22T07:00:03.654Z,3.90
2018-01-22T07:03:05.026Z,3.80
2018-01-22T07:06:06.392Z,4.00
2018-01-22T07:09:08.501Z,4.20
2018-01-22T07:12:09.822Z,4.10
2018-01-22T07:15:11.913Z,4.10
2018-01-22T07:18:13.219Z,4.20
2018-01-22T07:21:14.711Z,4.10
2018-01-22T07:24:16.089Z,4.00
2018-01-22T07:27:17.418Z,4.10
2018-01-22T07:30:18.757Z,4.10
2018-01-22T07:33:20.122Z,4.00
2018-01-22T07:36:22.695Z,4.10
2018-01-22T07:39:24.040Z,4.20
2018-01-22T07:42:25.407Z,4.40
2018-01-22T07:45:26.747Z,4.20
2018-01-22T07:48:28.059Z,4.30
2018-01-22T07:51:29.358Z,4.20
2018-01-22T07:54:31.088Z,4.30
2018-01-22T07:57:32.398Z,4.30
2018-01-22T08:00:33.694Z,4.30
2018-01-22T08:03:35.146Z,4.40
2018-01-22T08:06:36.493Z,4.20
2018-01-22T08:09:37.809Z,4.80
2018-01-22T08:12:39.145Z,4.70
2018-01-22T08:15:40.497Z,4.60
2018-01-22T08:18:41.819Z,4.60
2018-01-22T08:21:43.129Z,4.50
2018-01-22T08:24:45.197Z,4.50
2018-01-22T08:27:46.467Z,4.50
2018-01-22T08:30:47.761Z,4.60
2018-01-22T08:33:49.082Z,4.60
2018-01-22T08:36:50.416Z,4.60
2018-01-22T08:39:51.685Z,4.70
2018-01-22T08:42:53.022Z,4.80
2018-01-22T08:45:54.340Z,4.90
2018-01-22T08:48:56.477Z,4.90
2018-01-22T08:51:57.874Z,4.80
2018-01-22T08:54:59.239Z,4.90
2018-01-22T08:58:00.567Z,4.90
2018-01-22T09:01:01.937Z,4.80
2018-01-22T09:04:03.279Z,5.10
2018-01-22T09:07:04.755Z,5.10
2018-01-22T09:10:06.219Z,5.10
2018-01-22T09:13:07.534Z,5.20
2018-01-22T09:16:08.915Z,5.20
2018-01-22T09:19:10.245Z,5.40
2018-01-22T09:22:11.564Z,5.40
2018-01-22T09:25:13.618Z,5.30
2018-01-22T09:28:15.704Z,5.30
2018-01-22T09:31:17.754Z,5.40
2018-01-22T09:34:19.816Z,5.50
2018-01-22T09:37:23.205Z,5.50
2018-01-22T09:40:25.285Z,5.40
2018-01-22T09:43:27.371Z,5.40
2018-01-22T09:46:28.732Z,5.70
2018-01-22T09:49:30.098Z,5.50
2018-01-22T09:52:31.405Z,5.50
2018-01-22T09:55:33.480Z,5.60
2018-01-22T09:58:35.550Z,5.60
2018-01-22T10:01:37.625Z,5.60
2018-01-22T10:04:39.774Z,6.30
2018-01-22T10:07:41.074Z,6.20
2018-01-22T10:10:42.417Z,6.10
2018-01-22T10:13:43.737Z,5.90
2018-01-22T10:16:45.848Z,5.90
2018-01-22T10:19:47.355Z,5.80
2018-01-22T10:22:49.395Z,5.90
2018-01-22T10:25:50.720Z,5.90
2018-01-22T10:28:52.019Z,5.70
2018-01-22T10:32:01.181Z,6.00
2018-01-22T10:35:02.552Z,6.00
2018-01-22T10:38:03.862Z,6.00
2018-01-22T10:41:05.278Z,6.10
2018-01-22T10:44:06.894Z,6.10
2018-01-22T10:47:08.315Z,6.30
2018-01-22T10:50:09.673Z,6.10
2018-01-22T10:53:11.053Z,6.10
2018-01-22T10:56:12.514Z,6.30
2018-01-22T10:59:13.891Z,6.30
2018-01-22T11:02:15.338Z,6.30
2018-01-22T11:05:16.734Z,6.30
2018-01-22T11:08:18.117Z,6.40
2018-01-22T11:11:19.448Z,6.40
2018-01-22T11:14:20.868Z,6.40
2018-01-22T11:17:22.998Z,6.40
2018-01-22T11:20:24.419Z,6.50
2018-01-22T11:23:25.837Z,8.20
2018-01-22T11:26:27.981Z,7.30
2018-01-22T11:29:29.379Z,7.20
2018-01-22T11:32:30.690Z,7.00
2018-01-22T11:35:32.142Z,7.00
2018-01-22T11:38:33.533Z,6.90
2018-01-22T11:41:34.867Z,6.80
2018-01-22T11:44:36.916Z,6.90
2018-01-22T11:47:38.418Z,6.70
2018-01-22T11:50:39.809Z,6.90
2018-01-22T11:53:41.190Z,6.70
2018-01-22T11:56:43.339Z,6.80
2018-01-22T11:59:44.685Z,6.70
2018-01-22T12:02:46.180Z,6.90
2018-01-22T12:05:47.582Z,7.00
2018-01-22T12:08:48.989Z,6.90
2018-01-22T12:11:50.413Z,7.00
2018-01-22T12:14:54.808Z,7.00
2018-01-22T12:17:57.244Z,6.80
2018-01-22T12:20:59.533Z,7.10
2018-01-22T12:24:00.919Z,6.90
2018-01-22T12:27:02.236Z,6.90
2018-01-22T12:30:03.636Z,7.20
2018-01-22T12:33:05.754Z,7.10
2018-01-22T12:36:07.133Z,7.10
2018-01-22T12:39:08.498Z,7.10
2018-01-22T12:42:10.629Z,7.10
2018-01-22T12:45:11.962Z,6.90
2018-01-22T12:48:13.330Z,7.00
2018-01-22T12:51:14.678Z,6.90
2018-01-22T12:54:16.069Z,7.00
2018-01-22T12:57:18.201Z,6.90
2018-01-22T13:00:19.639Z,6.90
2018-01-22T13:03:21.129Z,6.80
2018-01-22T13:06:23.318Z,6.80
2018-01-22T13:09:25.456Z,9.50
2018-01-22T13:12:26.921Z,9.50
2018-01-22T13:15:28.337Z,8.60
2018-01-22T13:18:29.715Z,7.80
2018-01-22T13:21:31.512Z,7.50
2018-01-22T13:24:32.930Z,7.30
2018-01-22T13:27:34.344Z,7.30
2018-01-22T13:30:35.730Z,7.40
2018-01-22T13:33:37.257Z,7.30
2018-01-22T13:36:39.411Z,7.30
2018-01-22T13:39:40.815Z,7.20
2018-01-22T13:42:42.916Z,7.20
2018-01-22T13:45:44.388Z,7.20
2018-01-22T13:48:45.811Z,7.10
2018-01-22T13:51:47.150Z,7.20
2018-01-22T13:54:49.295Z,7.20
2018-01-22T13:57:50.642Z,7.20
2018-01-22T14:00:52.070Z,7.10
2018-01-22T14:03:53.464Z,6.90
2018-01-22T14:06:55.730Z,7.10
2018-01-22T14:09:57.215Z,7.00
2018-01-22T14:12:58.589Z,8.90
2018-01-22T14:16:00.062Z,9.00
2018-01-22T14:19:01.484Z,7.90
2018-01-22T14:22:02.920Z,7.70
2018-01-22T14:25:04.344Z,7.40
2018-01-22T14:28:05.736Z,7.30
2018-01-22T14:31:07.154Z,7.20
2018-01-22T14:34:09.334Z,7.20
2018-01-22T14:37:10.778Z,7.20
2018-01-22T14:40:12.942Z,7.20
2018-01-22T14:43:15.188Z,7.20
2018-01-22T14:46:16.664Z,7.10
2018-01-22T14:49:18.813Z,7.20
2018-01-22T14:52:20.298Z,7.10
2018-01-22T14:55:22.521Z,7.20
2018-01-22T14:58:23.947Z,7.20
2018-01-22T15:01:25.385Z,7.20
2018-01-22T15:04:26.841Z,7.10
2018-01-22T15:07:28.211Z,7.20
2018-01-22T15:10:29.640Z,7.00
2018-01-22T15:13:31.785Z,7.10
2018-01-22T15:16:33.248Z,7.00
2018-01-22T15:19:35.365Z,7.10
2018-01-22T15:22:36.819Z,7.00
2018-01-22T15:25:38.287Z,6.80
2018-01-22T15:28:39.691Z,7.10
2018-01-22T15:31:41.225Z,7.10
2018-01-22T15:34:43.370Z,7.10
2018-01-22T15:37:44.754Z,7.10
2018-01-22T15:40:46.966Z,7.00
2018-01-22T15:43:48.397Z,7.20
2018-01-22T15:46:49.976Z,7.20
2018-01-22T15:49:51.346Z,7.10
2018-01-22T15:52:52.786Z,7.10
2018-01-22T15:55:54.150Z,7.10
2018-01-22T15:58:55.559Z,7.00
2018-01-22T16:01:57.003Z,7.10
2018-01-22T16:04:58.559Z,7.00
2018-01-22T16:07:59.935Z,7.00
2018-01-22T16:11:01.402Z,7.00
2018-01-22T16:14:03.516Z,7.00
2018-01-22T16:17:05.622Z,6.90
2018-01-22T16:20:07.007Z,6.90
2018-01-22T16:23:08.370Z,6.90
2018-01-22T16:26:09.760Z,6.90
2018-01-22T16:29:11.126Z,7.00
2018-01-22T16:32:12.534Z,7.00
2018-01-22T16:35:15.191Z,8.30
2018-01-22T16:38:16.656Z,8.10
2018-01-22T16:41:18.922Z,7.40
2018-01-22T16:44:21.149Z,7.20
2018-01-22T16:51:05.737Z,7.00
2018-01-22T16:54:07.230Z,6.90
2018-01-22T16:57:09.453Z,6.90
2018-01-22T17:00:10.982Z,6.70
2018-01-22T17:03:12.454Z,6.90
2018-01-22T17:06:13.989Z,6.60
2018-01-22T17:09:15.491Z,6.90
2018-01-22T17:12:17.010Z,6.90
2018-01-22T17:15:18.483Z,6.80
2018-01-22T17:21:28.341Z,6.90
2018-01-22T17:24:29.845Z,7.00
2018-01-22T17:27:32.127Z,6.90
2018-01-22T17:30:34.371Z,6.90
2018-01-22T17:33:35.912Z,6.90
2018-01-22T17:36:37.448Z,6.90
2018-01-22T17:39:38.901Z,6.90
2018-01-22T17:42:40.446Z,6.80
2018-01-22T17:45:42.008Z,6.80
2018-01-22T17:48:43.564Z,6.80
2018-01-22T17:51:45.066Z,6.90
2018-01-22T17:54:46.616Z,6.90
2018-01-22T17:57:48.874Z,6.80
2018-01-22T18:00:50.386Z,6.80
2018-01-22T18:03:51.896Z,6.80
2018-01-22T18:06:53.373Z,7.00
2018-01-22T18:09:54.929Z,6.90
2018-01-22T18:12:56.393Z,6.80
2018-01-22T18:15:57.898Z,6.80
2018-01-22T18:18:59.404Z,6.80
2018-01-22T18:22:00.972Z,6.90
2018-01-22T18:25:02.573Z,7.00
2018-01-22T18:28:04.104Z,7.20
2018-01-22T18:31:05.648Z,6.80
2018-01-22T18:34:07.192Z,7.00
2018-01-22T18:37:08.709Z,7.00
2018-01-22T18:40:10.979Z,6.90
2018-01-22T18:43:12.463Z,6.80
2018-01-22T18:46:13.948Z,6.90
2018-01-22T18:49:15.427Z,6.80
2018-01-22T18:52:16.967Z,6.80
2018-01-22T18:55:18.520Z,6.70
2018-01-22T18:58:20.028Z,6.80
2018-01-22T19:01:21.510Z,6.80
2018-01-22T19:04:23.038Z,7.00
2018-01-22T19:07:24.574Z,7.10
2018-01-22T19:10:26.890Z,7.00
2018-01-22T19:13:29.008Z,7.00
2018-01-22T19:16:30.568Z,7.00
2018-01-22T19:19:32.796Z,7.00
2018-01-22T19:22:34.584Z,6.90
2018-01-22T19:25:36.368Z,6.90
2018-01-22T19:28:38.619Z,6.90
2018-01-22T19:31:41.701Z,6.90
2018-01-22T19:34:44.314Z,6.80
2018-01-22T19:37:45.852Z,6.80
2018-01-22T19:40:47.395Z,6.90
2018-01-22T19:43:49.802Z,6.90
2018-01-22T19:46:51.326Z,6.90
2018-01-22T19:49:52.899Z,6.80
2018-01-22T19:52:55.104Z,6.90
2018-01-22T19:55:56.594Z,6.90
2018-01-22T19:58:58.140Z,6.90
2018-01-22T20:01:59.641Z,6.90
2018-01-22T20:05:01.199Z,6.90
2018-01-22T20:08:02.913Z,6.80
2018-01-22T20:11:04.404Z,6.80
2018-01-22T20:14:06.798Z,6.90
2018-01-22T20:17:08.810Z,6.80
2018-01-22T20:20:10.712Z,6.80
2018-01-22T20:23:12.235Z,7.00
2018-01-22T20:26:14.119Z,6.90
2018-01-22T20:29:16.440Z,6.90
2018-01-22T20:32:18.256Z,6.80
2018-01-22T20:35:19.960Z,6.90
2018-01-22T20:38:21.477Z,6.70
2018-01-22T20:41:24.508Z,7.00
2018-01-22T20:44:29.589Z,6.90
2018-01-22T20:47:31.221Z,7.10
2018-01-22T20:50:32.875Z,6.90
2018-01-22T20:53:34.561Z,6.90
2018-01-22T20:56:37.287Z,6.90
2018-01-22T20:59:38.862Z,6.90
2018-01-22T21:02:40.471Z,6.80
2018-01-22T21:05:42.646Z,6.90
2018-01-22T21:08:45.145Z,7.00
2018-01-22T21:11:46.935Z,7.00
2018-01-22T21:14:49.482Z,7.20
2018-01-22T21:17:51.771Z,7.20
2018-01-22T21:20:53.935Z,7.00
2018-01-22T21:23:56.847Z,7.00
2018-01-22T21:26:59.748Z,6.90
2018-01-22T21:30:03.084Z,6.80
2018-01-22T21:33:04.917Z,6.90
2018-01-22T21:36:07.188Z,6.80
2018-01-22T21:39:10.443Z,6.70
2018-01-22T21:42:12.038Z,6.70
2018-01-22T21:45:13.631Z,6.70
2018-01-22T21:48:15.177Z,6.80
2018-01-22T21:51:17.355Z,6.70
2018-01-22T21:54:20.387Z,6.40
2018-01-22T21:57:21.977Z,6.70
2018-01-22T22:00:23.984Z,6.70
2018-01-22T22:03:25.567Z,6.60
2018-01-22T22:06:27.258Z,6.70
2018-01-22T22:09:28.873Z,6.60
2018-01-22T22:12:30.474Z,6.60
2018-01-22T22:15:32.125Z,6.80
2018-01-22T22:18:34.492Z,6.80
2018-01-22T22:21:36.855Z,6.80
2018-01-22T22:24:38.486Z,6.80
2018-01-22T22:27:40.036Z,6.80
2018-01-22T22:30:41.676Z,6.70
2018-01-22T22:33:43.352Z,6.70
2018-01-22T22:36:45.563Z,6.70
2018-01-22T22:39:47.157Z,6.70
2018-01-22T22:42:49.497Z,6.80
2018-01-22T22:45:51.092Z,6.70
2018-01-22T22:48:52.700Z,6.80
2018-01-22T22:51:55.102Z,6.70
2018-01-22T22:54:57.384Z,6.80
2018-01-22T22:57:59.034Z,6.80
2018-01-22T23:01:01.458Z,6.90
2018-01-22T23:04:03.060Z,6.90
2018-01-22T23:07:04.642Z,6.80
2018-01-22T23:10:06.289Z,6.80
2018-01-22T23:13:07.910Z,6.80
2018-01-22T23:16:09.528Z,6.70
2018-01-22T23:22:19.234Z,6.70
2018-01-22T23:25:20.806Z,6.70
2018-01-22T23:28:23.178Z,6.70
2018-01-22T23:31:25.416Z,6.70
2018-01-22T23:34:26.924Z,6.60
2018-01-22T23:37:28.426Z,6.60
2018-01-22T23:40:29.938Z,6.60
2018-01-22T23:43:31.450Z,6.70
2018-01-22T23:46:32.927Z,6.70
2018-01-22T23:49:35.215Z,6.70
2018-01-22T23:52:37.466Z,6.60
2018-01-22T23:55:39.724Z,6.70
2018-01-22T23:58:41.246Z,6.70
